sensor_id;sensor_type;location;lat;lon;timestamp;pressure;altitude;pressure_sealevel;temperature;humidity
13476;BME280;6810;63.824;20.288;2022-11-20T06:55:56;102473.16;;;-0.24;79.58
13476;BME280;6810;63.824;20.288;2022-11-20T06:58:43;102460.91;;;-0.25;79.93
13476;BME280;6810;63.824;20.288;2022-11-20T07:01:30;102467.09;;;-0.22;79.99
13476;BME280;6810;63.824;20.288;2022-11-20T07:04:17;102468.84;;;-0.21;79.83
13476;BME280;6810;63.824;20.288;2022-11-20T07:07:04;102460.06;;;-0.24;79.52
13476;BME280;6810;63.824;20.288;2022-11-20T07:09:51;102453.91;;;-0.28;79.91
13476;BME280;6810;63.824;20.288;2022-11-20T07:12:37;102470.63;;;-0.18;80.38
13476;BME280;6810;63.824;20.288;2022-11-20T07:15:25;102471.50;;;-0.18;79.77
13476;BME280;6810;63.824;20.288;2022-11-20T07:18:11;102478.50;;;-0.17;79.77
13476;BME280;6810;63.824;20.288;2022-11-20T07:21:03;102475.88;;;-0.15;79.81
13476;BME280;6810;63.824;20.288;2022-11-20T07:23:50;102468.06;;;-0.14;79.80
13476;BME280;6810;63.824;20.288;2022-11-20T07:26:38;102478.53;;;-0.14;80.04
13476;BME280;6810;63.824;20.288;2022-11-20T07:29:24;102472.47;;;-0.13;79.87
13476;BME280;6810;63.824;20.288;2022-11-20T07:32:11;102464.63;;;-0.10;80.19
13476;BME280;6810;63.824;20.288;2022-11-20T07:34:58;102457.59;;;-0.11;80.06
13476;BME280;6810;63.824;20.288;2022-11-20T07:37:44;102427.72;;;-0.28;79.94
13476;BME280;6810;63.824;20.288;2022-11-20T07:40:31;102456.81;;;-0.05;80.01
13476;BME280;6810;63.824;20.288;2022-11-20T07:43:18;102463.78;;;-0.06;79.87
13476;BME280;6810;63.824;20.288;2022-11-20T07:46:07;102459.41;;;-0.08;79.39
13476;BME280;6810;63.824;20.288;2022-11-20T07:48:54;102463.81;;;-0.04;80.13
13476;BME280;6810;63.824;20.288;2022-11-20T07:51:40;102469.94;;;-0.04;79.89
13476;BME280;6810;63.824;20.288;2022-11-20T07:54:30;102309.94;;;-0.89;79.73
13476;BME280;6810;63.824;20.288;2022-11-20T07:57:17;102458.63;;;-0.01;80.08
13476;BME280;6810;63.824;20.288;2022-11-20T08:00:05;102390.09;;;-0.33;80.13
13476;BME280;6810;63.824;20.288;2022-11-20T08:02:52;102457.78;;;0.02;80.35
13476;BME280;6810;63.824;20.288;2022-11-20T08:05:39;102456.88;;;-0.02;80.11
13476;BME280;6810;63.824;20.288;2022-11-20T08:08:26;102440.22;;;-0.06;80.36
13476;BME280;6810;63.824;20.288;2022-11-20T08:11:12;102384.81;;;-0.37;80.09
13476;BME280;6810;63.824;20.288;2022-11-20T08:13:58;102440.34;;;0.05;79.39
13476;BME280;6810;63.824;20.288;2022-11-20T08:16:59;102434.28;;;0.08;80.35
13476;BME280;6810;63.824;20.288;2022-11-20T08:19:46;102437.75;;;0.08;80.22
13476;BME280;6810;63.824;20.288;2022-11-20T08:22:33;102431.69;;;0.09;80.04
13476;BME280;6810;63.824;20.288;2022-11-20T08:25:19;102417.50;;;-0.07;80.30
13476;BME280;6810;63.824;20.288;2022-11-20T08:28:08;102438.66;;;0.10;80.11
13476;BME280;6810;63.824;20.288;2022-11-20T08:31:00;102437.78;;;0.11;79.96
13476;BME280;6810;63.824;20.288;2022-11-20T08:33:47;102433.41;;;0.09;79.83
13476;BME280;6810;63.824;20.288;2022-11-20T08:36:36;102438.63;;;0.07;80.00
13476;BME280;6810;63.824;20.288;2022-11-20T08:39:23;102422.91;;;0.07;79.79
13476;BME280;6810;63.824;20.288;2022-11-20T08:42:09;102437.72;;;0.05;80.21
13476;BME280;6810;63.824;20.288;2022-11-20T08:44:56;102443.84;;;0.06;80.02
13476;BME280;6810;63.824;20.288;2022-11-20T08:47:44;102436.91;;;0.08;80.09
13476;BME280;6810;63.824;20.288;2022-11-20T08:50:31;102428.16;;;0.09;80.24
13476;BME280;6810;63.824;20.288;2022-11-20T08:53:18;102423.78;;;0.08;80.29
13476;BME280;6810;63.824;20.288;2022-11-20T08:56:05;102427.31;;;0.11;80.15
13476;BME280;6810;63.824;20.288;2022-11-20T08:58:52;102416.00;;;0.14;80.18
13476;BME280;6810;63.824;20.288;2022-11-20T09:01:59;102427.34;;;0.16;80.26
13476;BME280;6810;63.824;20.288;2022-11-20T09:04:46;102426.47;;;0.14;80.17
13476;BME280;6810;63.824;20.288;2022-11-20T09:07:32;102417.75;;;0.15;80.25
13476;BME280;6810;63.824;20.288;2022-11-20T09:10:19;102418.63;;;0.15;79.98
13476;BME280;6810;63.824;20.288;2022-11-20T09:13:06;102421.22;;;0.12;80.50
13476;BME280;6810;63.824;20.288;2022-11-20T09:16:00;102420.38;;;0.15;80.04
13476;BME280;6810;63.824;20.288;2022-11-20T09:18:50;102333.38;;;-0.32;80.50
13476;BME280;6810;63.824;20.288;2022-11-20T09:21:56;102418.66;;;0.17;80.52
13476;BME280;6810;63.824;20.288;2022-11-20T09:24:43;102369.38;;;-0.13;80.03
13476;BME280;6810;63.824;20.288;2022-11-20T09:27:30;102416.91;;;0.19;80.50
13476;BME280;6810;63.824;20.288;2022-11-20T09:30:16;102417.81;;;0.21;80.39
13476;BME280;6810;63.824;20.288;2022-11-20T09:33:05;102419.56;;;0.22;80.85
13476;BME280;6810;63.824;20.288;2022-11-20T09:35:52;102411.72;;;0.25;80.33
13476;BME280;6810;63.824;20.288;2022-11-20T09:38:39;102410.00;;;0.27;80.72
13476;BME280;6810;63.824;20.288;2022-11-20T09:56:58;102403.75;;;0.16;80.34
13476;BME280;6810;63.824;20.288;2022-11-20T09:59:59;102401.13;;;0.16;80.67
13476;BME280;6810;63.824;20.288;2022-11-20T10:03:01;102398.50;;;0.14;80.31
13476;BME280;6810;63.824;20.288;2022-11-20T10:05:56;102395.88;;;0.13;80.24
13476;BME280;6810;63.824;20.288;2022-11-20T10:09:39;102380.94;;;0.04;80.55
13476;BME280;6810;63.824;20.288;2022-11-20T10:22:26;102374.88;;;0.11;80.60
13476;BME280;6810;63.824;20.288;2022-11-20T10:25:39;102377.50;;;0.11;80.75
13476;BME280;6810;63.824;20.288;2022-11-20T10:31:33;102376.69;;;0.14;80.84
13476;BME280;6810;63.824;20.288;2022-11-20T10:34:26;102368.81;;;0.15;80.70
13476;BME280;6810;63.824;20.288;2022-11-20T10:40:20;102379.31;;;0.15;80.71
13476;BME280;6810;63.824;20.288;2022-11-20T10:43:13;102363.56;;;0.14;80.71
13476;BME280;6810;63.824;20.288;2022-11-20T10:46:09;102366.16;;;0.11;80.73
13476;BME280;6810;63.824;20.288;2022-11-20T10:48:58;102372.28;;;0.13;81.02
13476;BME280;6810;63.824;20.288;2022-11-20T10:51:56;102373.16;;;0.13;80.44
13476;BME280;6810;63.824;20.288;2022-11-20T11:00:30;102366.25;;;0.18;81.12
13476;BME280;6810;63.824;20.288;2022-11-20T11:03:29;102367.09;;;0.19;80.84
13476;BME280;6810;63.824;20.288;2022-11-20T11:06:36;102371.50;;;0.21;81.01
13476;BME280;6810;63.824;20.288;2022-11-20T11:09:37;102363.66;;;0.23;81.04
13476;BME280;6810;63.824;20.288;2022-11-20T11:12:28;102365.41;;;0.22;80.47
13476;BME280;6810;63.824;20.288;2022-11-20T11:15:38;102347.81;;;0.11;80.77
13476;BME280;6810;63.824;20.288;2022-11-20T11:18:30;102366.25;;;0.18;80.66
13476;BME280;6810;63.824;20.288;2022-11-20T11:21:23;102365.34;;;0.16;80.75
13476;BME280;6810;63.824;20.288;2022-11-20T11:24:26;102372.31;;;0.16;80.84
13476;BME280;6810;63.824;20.288;2022-11-20T11:27:14;102361.78;;;0.13;80.63
13476;BME280;6810;63.824;20.288;2022-11-20T11:30:12;102358.34;;;0.15;80.94
13476;BME280;6810;63.824;20.288;2022-11-20T11:33:04;102356.56;;;0.14;80.83
13476;BME280;6810;63.824;20.288;2022-11-20T11:35:54;102337.31;;;0.11;80.92
13476;BME280;6810;63.824;20.288;2022-11-20T11:38:42;102346.94;;;0.12;80.44
13476;BME280;6810;63.824;20.288;2022-11-20T11:41:32;102342.56;;;0.09;80.96
13476;BME280;6810;63.824;20.288;2022-11-20T11:44:25;102342.53;;;0.06;80.89
13476;BME280;6810;63.824;20.288;2022-11-20T11:47:25;102345.16;;;0.06;80.88
13476;BME280;6810;63.824;20.288;2022-11-20T11:53:09;102337.31;;;0.08;81.13
13476;BME280;6810;63.824;20.288;2022-11-20T11:56:04;102304.78;;;-0.10;80.98
13476;BME280;6810;63.824;20.288;2022-11-20T11:58:56;102335.56;;;0.11;81.66
13476;BME280;6810;63.824;20.288;2022-11-20T12:01:49;102336.47;;;0.13;81.35
13476;BME280;6810;63.824;20.288;2022-11-20T12:14:40;102349.63;;;0.18;80.59
13476;BME280;6810;63.824;20.288;2022-11-20T12:17:29;102330.38;;;0.16;81.36
13476;BME280;6810;63.824;20.288;2022-11-20T12:20:16;102315.47;;;0.12;81.45
13476;BME280;6810;63.824;20.288;2022-11-20T12:23:17;102325.13;;;0.16;81.21
13476;BME280;6810;63.824;20.288;2022-11-20T12:26:22;102331.25;;;0.15;81.13
13476;BME280;6810;63.824;20.288;2022-11-20T12:41:43;102326.00;;;0.16;81.20
13476;BME280;6810;63.824;20.288;2022-11-20T12:57:33;102329.50;;;0.15;80.91
13476;BME280;6810;63.824;20.288;2022-11-20T13:00:23;102315.50;;;0.15;81.39
13476;BME280;6810;63.824;20.288;2022-11-20T13:06:25;102312.91;;;0.16;81.18
13476;BME280;6810;63.824;20.288;2022-11-20T13:09:15;102305.94;;;0.17;81.59
13476;BME280;6810;63.824;20.288;2022-11-20T13:12:10;102267.22;;;-0.09;81.58
13476;BME280;6810;63.824;20.288;2022-11-20T13:15:07;102313.78;;;0.15;81.19
13476;BME280;6810;63.824;20.288;2022-11-20T13:18:00;102312.00;;;0.14;81.24
13476;BME280;6810;63.824;20.288;2022-11-20T13:20:48;102305.91;;;0.15;81.28
13476;BME280;6810;63.824;20.288;2022-11-20T13:23:34;102287.47;;;0.05;81.41
13476;BME280;6810;63.824;20.288;2022-11-20T13:26:22;102299.75;;;0.12;81.57
13476;BME280;6810;63.824;20.288;2022-11-20T13:29:17;102293.56;;;0.05;81.48
13476;BME280;6810;63.824;20.288;2022-11-20T13:32:16;102291.00;;;0.10;81.52
13476;BME280;6810;63.824;20.288;2022-11-20T13:35:04;102288.34;;;0.08;81.26
13476;BME280;6810;63.824;20.288;2022-11-20T13:38:14;102292.72;;;0.05;81.20
13476;BME280;6810;63.824;20.288;2022-11-20T13:41:01;102286.59;;;0.06;80.95
13476;BME280;6810;63.824;20.288;2022-11-20T13:43:51;102283.97;;;0.06;81.35
13476;BME280;6810;63.824;20.288;2022-11-20T13:46:43;102282.25;;;0.06;81.16
13476;BME280;6810;63.824;20.288;2022-11-20T13:49:49;102254.16;;;-0.06;81.35
13476;BME280;6810;63.824;20.288;2022-11-20T13:52:57;102272.59;;;0.05;81.32
13476;BME280;6810;63.824;20.288;2022-11-20T13:59:05;102271.72;;;0.00;81.32
13476;BME280;6810;63.824;20.288;2022-11-20T14:01:56;102269.03;;;-0.02;81.35
13476;BME280;6810;63.824;20.288;2022-11-20T14:04:45;102259.44;;;-0.03;81.18
13476;BME280;6810;63.824;20.288;2022-11-20T14:07:39;102264.66;;;-0.03;81.39
13476;BME280;6810;63.824;20.288;2022-11-20T14:10:29;102262.91;;;-0.07;81.52
13476;BME280;6810;63.824;20.288;2022-11-20T14:13:18;102263.75;;;-0.08;81.43
13476;BME280;6810;63.824;20.288;2022-11-20T14:16:06;102253.25;;;-0.09;81.42
13476;BME280;6810;63.824;20.288;2022-11-20T14:18:53;102259.34;;;-0.12;81.29
13476;BME280;6810;63.824;20.288;2022-11-20T14:21:41;102260.22;;;-0.14;81.48
13476;BME280;6810;63.824;20.288;2022-11-20T14:24:27;102253.19;;;-0.14;81.61
13476;BME280;6810;63.824;20.288;2022-11-20T14:27:23;102254.97;;;-0.13;81.60
13476;BME280;6810;63.824;20.288;2022-11-20T14:33:02;102254.13;;;-0.09;81.29
13476;BME280;6810;63.824;20.288;2022-11-20T14:35:52;102243.66;;;-0.07;81.61
13476;BME280;6810;63.824;20.288;2022-11-20T14:38:39;102237.53;;;-0.08;81.38
13476;BME280;6810;63.824;20.288;2022-11-20T14:41:26;102232.28;;;-0.08;81.64
13476;BME280;6810;63.824;20.288;2022-11-20T14:44:13;102185.81;;;-0.33;81.62
13476;BME280;6810;63.824;20.288;2022-11-20T14:47:01;102229.69;;;-0.06;81.70
13476;BME280;6810;63.824;20.288;2022-11-20T14:49:49;102223.59;;;-0.05;82.20
13476;BME280;6810;63.824;20.288;2022-11-20T14:52:36;102221.78;;;-0.11;81.43
13476;BME280;6810;63.824;20.288;2022-11-20T14:58:30;102220.03;;;-0.12;81.36
13476;BME280;6810;63.824;20.288;2022-11-20T15:01:26;102221.81;;;-0.06;81.59
13476;BME280;6810;63.824;20.288;2022-11-20T15:04:13;102233.22;;;-0.03;81.74
13476;BME280;6810;63.824;20.288;2022-11-20T15:07:00;102226.25;;;-0.02;81.53
13476;BME280;6810;63.824;20.288;2022-11-20T15:09:47;102221.00;;;-0.04;81.59
13476;BME280;6810;63.824;20.288;2022-11-20T15:12:37;102230.56;;;-0.06;81.64
13476;BME280;6810;63.824;20.288;2022-11-20T15:15:30;102168.34;;;-0.32;81.87
13476;BME280;6810;63.824;20.288;2022-11-20T15:18:21;102219.19;;;-0.08;81.69
13476;BME280;6810;63.824;20.288;2022-11-20T15:21:11;102167.44;;;-0.37;81.24
13476;BME280;6810;63.824;20.288;2022-11-20T15:23:58;102216.56;;;-0.08;81.71
13476;BME280;6810;63.824;20.288;2022-11-20T15:26:45;102219.19;;;-0.09;81.50
13476;BME280;6810;63.824;20.288;2022-11-20T15:29:32;102193.75;;;-0.24;81.24
13476;BME280;6810;63.824;20.288;2022-11-20T15:32:19;102203.41;;;-0.15;81.38
13476;BME280;6810;63.824;20.288;2022-11-20T15:35:06;102205.16;;;-0.17;81.30
13476;BME280;6810;63.824;20.288;2022-11-20T15:37:53;102184.09;;;-0.29;81.31
13476;BME280;6810;63.824;20.288;2022-11-20T15:40:40;102201.63;;;-0.21;81.37
13476;BME280;6810;63.824;20.288;2022-11-20T15:43:26;102203.34;;;-0.23;81.24
13476;BME280;6810;63.824;20.288;2022-11-20T15:46:22;102167.44;;;-0.37;81.56
13476;BME280;6810;63.824;20.288;2022-11-20T15:49:15;102205.97;;;-0.23;81.67
13476;BME280;6810;63.824;20.288;2022-11-20T15:52:02;102205.13;;;-0.22;81.46
13476;BME280;6810;63.824;20.288;2022-11-20T15:54:49;102199.84;;;-0.25;80.99
13476;BME280;6810;63.824;20.288;2022-11-20T15:57:36;102207.72;;;-0.25;81.72
13476;BME280;6810;63.824;20.288;2022-11-20T16:00:22;102212.94;;;-0.25;81.47
13476;BME280;6810;63.824;20.288;2022-11-20T16:03:13;102205.09;;;-0.25;81.67
13476;BME280;6810;63.824;20.288;2022-11-20T16:06:01;102205.94;;;-0.26;81.79
13476;BME280;6810;63.824;20.288;2022-11-20T16:08:47;102204.16;;;-0.30;81.72
13476;BME280;6810;63.824;20.288;2022-11-20T16:11:34;102202.41;;;-0.32;81.70
13476;BME280;6810;63.824;20.288;2022-11-20T16:14:21;102123.34;;;-0.80;81.78
13476;BME280;6810;63.824;20.288;2022-11-20T16:17:07;102201.50;;;-0.34;81.77
13476;BME280;6810;63.824;20.288;2022-11-20T16:19:53;102201.44;;;-0.39;81.41
13476;BME280;6810;63.824;20.288;2022-11-20T16:22:40;102203.13;;;-0.45;81.78
13476;BME280;6810;63.824;20.288;2022-11-20T16:25:27;102196.16;;;-0.43;81.61
13476;BME280;6810;63.824;20.288;2022-11-20T16:28:14;102204.06;;;-0.40;81.17
13476;BME280;6810;63.824;20.288;2022-11-20T16:31:09;102196.22;;;-0.40;81.59
13476;BME280;6810;63.824;20.288;2022-11-20T16:33:57;102193.59;;;-0.40;81.91
13476;BME280;6810;63.824;20.288;2022-11-20T16:36:44;102194.44;;;-0.40;82.01
13476;BME280;6810;63.824;20.288;2022-11-20T16:39:31;102196.22;;;-0.40;81.58
13476;BME280;6810;63.824;20.288;2022-11-20T16:42:18;102182.13;;;-0.50;81.78
13476;BME280;6810;63.824;20.288;2022-11-20T16:45:05;102190.06;;;-0.44;81.44
13476;BME280;6810;63.824;20.288;2022-11-20T16:47:59;102192.66;;;-0.45;81.92
13476;BME280;6810;63.824;20.288;2022-11-20T16:50:54;102184.78;;;-0.47;81.67
13476;BME280;6810;63.824;20.288;2022-11-20T16:53:42;102182.09;;;-0.53;81.65
13476;BME280;6810;63.824;20.288;2022-11-20T16:56:29;102184.78;;;-0.48;81.07
13476;BME280;6810;63.824;20.288;2022-11-20T16:59:16;102168.06;;;-0.58;81.88
13476;BME280;6810;63.824;20.288;2022-11-20T17:02:02;102179.53;;;-0.48;81.98
13476;BME280;6810;63.824;20.288;2022-11-20T17:04:49;102190.00;;;-0.50;81.53
13476;BME280;6810;63.824;20.288;2022-11-20T17:07:36;102182.13;;;-0.51;81.63
13476;BME280;6810;63.824;20.288;2022-11-20T17:10:23;102177.72;;;-0.55;81.75
13476;BME280;6810;63.824;20.288;2022-11-20T17:13:09;102179.47;;;-0.56;82.07
13476;BME280;6810;63.824;20.288;2022-11-20T17:16:03;102193.47;;;-0.51;81.56
13476;BME280;6810;63.824;20.288;2022-11-20T17:18:53;102183.00;;;-0.51;81.91
13476;BME280;6810;63.824;20.288;2022-11-20T17:21:40;102177.78;;;-0.51;81.98
13476;BME280;6810;63.824;20.288;2022-11-20T17:24:27;102178.59;;;-0.53;81.68
13476;BME280;6810;63.824;20.288;2022-11-20T17:27:14;102128.53;;;-0.85;81.73
13476;BME280;6810;63.824;20.288;2022-11-20T17:30:00;102154.88;;;-0.70;81.93
13476;BME280;6810;63.824;20.288;2022-11-20T17:32:47;102169.88;;;-0.55;81.96
13476;BME280;6810;63.824;20.288;2022-11-20T17:35:35;102171.63;;;-0.54;81.68
13476;BME280;6810;63.824;20.288;2022-11-20T17:38:22;102174.22;;;-0.54;81.83
13476;BME280;6810;63.824;20.288;2022-11-20T17:41:17;102166.34;;;-0.57;81.94
13476;BME280;6810;63.824;20.288;2022-11-20T17:44:04;102170.75;;;-0.52;81.95
13476;BME280;6810;63.824;20.288;2022-11-20T17:46:51;102181.25;;;-0.50;81.89
13476;BME280;6810;63.824;20.288;2022-11-20T17:49:38;102178.63;;;-0.52;81.70
13476;BME280;6810;63.824;20.288;2022-11-20T17:52:25;102175.97;;;-0.53;81.88
13476;BME280;6810;63.824;20.288;2022-11-20T17:55:12;102171.56;;;-0.60;81.46
13476;BME280;6810;63.824;20.288;2022-11-20T17:57:59;102172.41;;;-0.64;81.53
13476;BME280;6810;63.824;20.288;2022-11-20T18:00:45;102173.25;;;-0.65;80.76
13476;BME280;6810;63.824;20.288;2022-11-20T18:03:32;102172.31;;;-0.70;81.24
13476;BME280;6810;63.824;20.288;2022-11-20T18:06:21;102175.81;;;-0.68;81.71
13476;BME280;6810;63.824;20.288;2022-11-20T18:09:09;102192.41;;;-0.69;81.54
13476;BME280;6810;63.824;20.288;2022-11-20T18:11:56;102173.22;;;-0.68;81.69
13476;BME280;6810;63.824;20.288;2022-11-20T18:14:43;102171.47;;;-0.69;81.36
13476;BME280;6810;63.824;20.288;2022-11-20T18:17:30;102162.72;;;-0.70;81.62
13476;BME280;6810;63.824;20.288;2022-11-20T18:20:17;102160.97;;;-0.72;81.73
13476;BME280;6810;63.824;20.288;2022-11-20T18:23:05;102155.75;;;-0.71;81.62
13476;BME280;6810;63.824;20.288;2022-11-20T18:25:59;102157.50;;;-0.70;81.86
13476;BME280;6810;63.824;20.288;2022-11-20T18:28:45;102163.63;;;-0.69;81.78
13476;BME280;6810;63.824;20.288;2022-11-20T18:31:33;102115.38;;;-0.94;81.73
13476;BME280;6810;63.824;20.288;2022-11-20T18:34:19;102160.97;;;-0.71;81.81
13476;BME280;6810;63.824;20.288;2022-11-20T18:37:06;102163.59;;;-0.71;81.80
13476;BME280;6810;63.824;20.288;2022-11-20T18:39:54;102162.69;;;-0.74;81.21
13476;BME280;6810;63.824;20.288;2022-11-20T18:42:41;102160.88;;;-0.80;80.73
13476;BME280;6810;63.824;20.288;2022-11-20T18:45:26;102173.09;;;-0.79;81.29
13476;BME280;6810;63.824;20.288;2022-11-20T18:48:13;102153.78;;;-0.90;81.94
13476;BME280;6810;63.824;20.288;2022-11-20T18:51:06;102168.72;;;-0.80;81.91
13476;BME280;6810;63.824;20.288;2022-11-20T18:53:54;102176.59;;;-0.78;81.85
13476;BME280;6810;63.824;20.288;2022-11-20T18:56:40;102167.81;;;-0.83;81.71
13476;BME280;6810;63.824;20.288;2022-11-20T18:59:27;102175.72;;;-0.79;81.66
13476;BME280;6810;63.824;20.288;2022-11-20T19:02:17;102174.81;;;-0.81;81.25
13476;BME280;6810;63.824;20.288;2022-11-20T19:05:10;102168.66;;;-0.86;81.35
13476;BME280;6810;63.824;20.288;2022-11-20T19:07:57;102184.38;;;-0.86;81.11
13476;BME280;6810;63.824;20.288;2022-11-20T19:10:44;102173.00;;;-0.86;81.63
13476;BME280;6810;63.824;20.288;2022-11-20T19:13:31;102170.38;;;-0.88;81.55
13476;BME280;6810;63.824;20.288;2022-11-20T19:16:19;102162.47;;;-0.92;81.74
13476;BME280;6810;63.824;20.288;2022-11-20T19:19:06;102170.38;;;-0.89;81.31
13476;BME280;6810;63.824;20.288;2022-11-20T19:21:53;102158.97;;;-0.94;81.47
13476;BME280;6810;63.824;20.288;2022-11-20T19:24:40;102083.47;;;-1.36;81.64
13476;BME280;6810;63.824;20.288;2022-11-20T19:27:27;102161.63;;;-0.90;81.66
13476;BME280;6810;63.824;20.288;2022-11-20T19:30:14;102114.25;;;-1.14;81.30
13476;BME280;6810;63.824;20.288;2022-11-20T19:33:01;102157.28;;;-0.89;81.77
13476;BME280;6810;63.824;20.288;2022-11-20T19:35:47;102043.25;;;-1.50;81.27
13476;BME280;6810;63.824;20.288;2022-11-20T19:38:35;102142.44;;;-0.92;81.39
13476;BME280;6810;63.824;20.288;2022-11-20T19:41:27;102139.81;;;-0.92;81.63
13476;BME280;6810;63.824;20.288;2022-11-20T19:44:17;102139.81;;;-0.93;81.71
13476;BME280;6810;63.824;20.288;2022-11-20T19:47:03;102134.44;;;-1.01;81.21
13476;BME280;6810;63.824;20.288;2022-11-20T19:50:10;102144.09;;;-0.98;81.31
13476;BME280;6810;63.824;20.288;2022-11-20T19:52:57;102143.22;;;-0.97;81.16
13476;BME280;6810;63.824;20.288;2022-11-20T19:55:57;102141.47;;;-0.98;81.63
13476;BME280;6810;63.824;20.288;2022-11-20T19:58:44;102144.91;;;-1.01;81.48
13476;BME280;6810;63.824;20.288;2022-11-20T20:01:31;102130.03;;;-1.06;81.61
13476;BME280;6810;63.824;20.288;2022-11-20T20:04:18;102146.69;;;-1.00;81.42
13476;BME280;6810;63.824;20.288;2022-11-20T20:07:05;102136.22;;;-1.00;81.65
13476;BME280;6810;63.824;20.288;2022-11-20T20:09:51;102137.06;;;-1.02;81.50
13476;BME280;6810;63.824;20.288;2022-11-20T20:12:38;102140.53;;;-1.03;81.22
13476;BME280;6810;63.824;20.288;2022-11-20T20:15:25;102122.16;;;-1.09;81.64
13476;BME280;6810;63.824;20.288;2022-11-20T20:18:12;102131.81;;;-1.04;81.03
13476;BME280;6810;63.824;20.288;2022-11-20T20:21:07;102132.66;;;-1.06;80.98
13476;BME280;6810;63.824;20.288;2022-11-20T20:23:54;102134.38;;;-1.08;81.14
13476;BME280;6810;63.824;20.288;2022-11-20T20:26:42;102133.50;;;-1.10;81.39
13476;BME280;6810;63.824;20.288;2022-11-20T20:29:28;102116.81;;;-1.18;81.62
13476;BME280;6810;63.824;20.288;2022-11-20T20:32:15;102133.44;;;-1.16;81.87
13476;BME280;6810;63.824;20.288;2022-11-20T20:35:03;102124.72;;;-1.14;81.40
13476;BME280;6810;63.824;20.288;2022-11-20T20:37:49;102120.38;;;-1.15;81.11
13476;BME280;6810;63.824;20.288;2022-11-20T20:40:36;102122.06;;;-1.17;81.30
13476;BME280;6810;63.824;20.288;2022-11-20T20:43:23;102123.81;;;-1.16;81.56
13476;BME280;6810;63.824;20.288;2022-11-20T20:46:10;102115.13;;;-1.16;81.48
13476;BME280;6810;63.824;20.288;2022-11-20T20:48:57;102094.06;;;-1.28;81.72
13476;BME280;6810;63.824;20.288;2022-11-20T20:51:44;102115.16;;;-1.13;81.13
13476;BME280;6810;63.824;20.288;2022-11-20T20:54:30;102110.78;;;-1.13;81.77
13476;BME280;6810;63.824;20.288;2022-11-20T20:57:17;102114.25;;;-1.14;81.43
13476;BME280;6810;63.824;20.288;2022-11-20T21:00:05;102102.88;;;-1.19;81.52
13476;BME280;6810;63.824;20.288;2022-11-20T21:02:52;102108.97;;;-1.18;81.29
13476;BME280;6810;63.824;20.288;2022-11-20T21:05:38;102108.09;;;-1.19;81.55
13476;BME280;6810;63.824;20.288;2022-11-20T21:08:25;102108.09;;;-1.19;81.39
13476;BME280;6810;63.824;20.288;2022-11-20T21:11:14;102112.41;;;-1.24;81.40
13476;BME280;6810;63.824;20.288;2022-11-20T21:14:02;102105.38;;;-1.28;81.35
13476;BME280;6810;63.824;20.288;2022-11-20T21:16:49;102110.56;;;-1.32;81.34
13476;BME280;6810;63.824;20.288;2022-11-20T21:19:40;102067.59;;;-1.52;81.33
13476;BME280;6810;63.824;20.288;2022-11-20T21:22:27;102101.75;;;-1.37;81.38
13476;BME280;6810;63.824;20.288;2022-11-20T21:25:14;102104.34;;;-1.40;81.26
13476;BME280;6810;63.824;20.288;2022-11-20T21:28:01;102099.97;;;-1.43;80.75
13476;BME280;6810;63.824;20.288;2022-11-20T21:30:47;102112.09;;;-1.46;80.92
13476;BME280;6810;63.824;20.288;2022-11-20T21:33:36;102104.31;;;-1.43;81.49
13476;BME280;6810;63.824;20.288;2022-11-20T21:36:25;102106.91;;;-1.45;81.44
13476;BME280;6810;63.824;20.288;2022-11-20T21:39:13;102119.09;;;-1.47;81.22
13476;BME280;6810;63.824;20.288;2022-11-20T21:42:00;102100.81;;;-1.45;81.01
13476;BME280;6810;63.824;20.288;2022-11-20T21:44:47;102106.03;;;-1.45;80.95
13476;BME280;6810;63.824;20.288;2022-11-20T21:47:33;102093.81;;;-1.45;81.64
13476;BME280;6810;63.824;20.288;2022-11-20T21:50:20;102089.44;;;-1.49;81.04
13476;BME280;6810;63.824;20.288;2022-11-20T21:53:07;102050.81;;;-1.71;81.34
13476;BME280;6810;63.824;20.288;2022-11-20T21:55:54;102098.09;;;-1.53;81.11
13476;BME280;6810;63.824;20.288;2022-11-20T21:58:46;102102.38;;;-1.59;80.78
13476;BME280;6810;63.824;20.288;2022-11-20T22:01:33;102098.88;;;-1.60;80.82
13476;BME280;6810;63.824;20.288;2022-11-20T22:04:20;102104.06;;;-1.61;81.14
13476;BME280;6810;63.824;20.288;2022-11-20T22:07:07;102096.22;;;-1.63;80.80
13476;BME280;6810;63.824;20.288;2022-11-20T22:09:54;102101.38;;;-1.69;81.31
13476;BME280;6810;63.824;20.288;2022-11-20T22:12:44;102103.03;;;-1.74;81.15
13476;BME280;6810;63.824;20.288;2022-11-20T22:15:31;102099.47;;;-1.82;81.45
13476;BME280;6810;63.824;20.288;2022-11-20T22:18:26;102096.84;;;-1.82;80.83
13476;BME280;6810;63.824;20.288;2022-11-20T22:21:13;102105.63;;;-1.76;81.49
13476;BME280;6810;63.824;20.288;2022-11-20T22:24:01;102078.44;;;-1.91;81.27
13476;BME280;6810;63.824;20.288;2022-11-20T22:26:48;102059.19;;;-1.96;81.27
13476;BME280;6810;63.824;20.288;2022-11-20T22:29:35;102095.22;;;-1.73;81.70
13476;BME280;6810;63.824;20.288;2022-11-20T22:32:22;102088.25;;;-1.73;81.50
13476;BME280;6810;63.824;20.288;2022-11-20T22:35:09;102090.81;;;-1.75;81.09
13476;BME280;6810;63.824;20.288;2022-11-20T22:37:55;102084.56;;;-1.86;81.08
13476;BME280;6810;63.824;20.288;2022-11-20T22:40:42;102087.09;;;-1.92;81.15
13476;BME280;6810;63.824;20.288;2022-11-20T22:43:32;102094.22;;;-1.84;81.09
13476;BME280;6810;63.824;20.288;2022-11-20T22:46:20;102104.59;;;-1.88;81.49
13476;BME280;6810;63.824;20.288;2022-11-20T22:49:07;102099.34;;;-1.90;80.94
13476;BME280;6810;63.824;20.288;2022-11-20T22:51:54;102094.09;;;-1.91;81.12
13476;BME280;6810;63.824;20.288;2022-11-20T22:54:41;102087.88;;;-2.01;81.45
13476;BME280;6810;63.824;20.288;2022-11-20T22:57:28;102115.06;;;-1.87;80.90
13476;BME280;6810;63.824;20.288;2022-11-20T23:00:15;102008.03;;;-2.43;80.67
13476;BME280;6810;63.824;20.288;2022-11-20T23:03:02;102113.31;;;-1.86;81.63
13476;BME280;6810;63.824;20.288;2022-11-20T23:05:49;102113.28;;;-1.88;81.34
13476;BME280;6810;63.824;20.288;2022-11-20T23:08:36;102060.63;;;-2.18;81.66
13476;BME280;6810;63.824;20.288;2022-11-20T23:11:28;102118.53;;;-1.86;81.09